createdAt,value
2023-05-20T00:00:28.244Z,69.40
2023-05-20T00:02:55.872Z,69.30
2023-05-20T00:05:24.011Z,69.00
2023-05-20T00:07:51.667Z,69.40
2023-05-20T00:10:19.320Z,69.80
2023-05-20T00:12:46.921Z,69.80
2023-05-20T00:15:14.461Z,69.90
2023-05-20T00:17:42.073Z,70.10
2023-05-20T00:20:10.162Z,70.20
2023-05-20T00:22:37.739Z,71.30
2023-05-20T00:25:05.703Z,70.70
2023-05-20T00:27:33.240Z,71.10
2023-05-20T00:30:00.928Z,71.10
2023-05-20T00:32:28.747Z,71.40
2023-05-20T00:35:00.852Z,71.80
2023-05-20T00:37:28.507Z,72.90
2023-05-20T00:39:56.170Z,72.70
2023-05-20T00:42:26.388Z,72.60
2023-05-20T00:44:55.175Z,72.70
2023-05-20T00:47:29.598Z,72.70
2023-05-20T00:49:58.531Z,72.60
2023-05-20T00:52:27.335Z,73.20
2023-05-20T00:54:54.904Z,72.20
2023-05-20T00:57:22.468Z,72.40
2023-05-20T00:59:50.088Z,72.30
2023-05-20T01:02:18.802Z,72.50
2023-05-20T01:04:47.332Z,72.20
2023-05-20T01:07:19.928Z,72.20
2023-05-20T01:09:47.775Z,72.50
2023-05-20T01:12:30.321Z,72.20
2023-05-20T01:15:12.525Z,72.40
2023-05-20T01:17:45.015Z,72.50
2023-05-20T01:20:14.821Z,72.50
2023-05-20T01:22:56.947Z,72.60
2023-05-20T01:25:26.275Z,72.60
2023-05-20T01:27:59.861Z,72.30
2023-05-20T01:30:34.499Z,72.40
2023-05-20T01:33:08.245Z,72.60
2023-05-20T01:35:36.692Z,73.30
2023-05-20T01:38:06.175Z,72.20
2023-05-20T01:40:35.011Z,72.50
2023-05-20T01:43:04.302Z,72.50
2023-05-20T01:45:31.968Z,72.60
2023-05-20T01:48:01.695Z,72.70
2023-05-20T01:50:29.384Z,72.70
2023-05-20T01:52:57.003Z,72.70
2023-05-20T01:55:25.947Z,73.10
2023-05-20T01:57:53.528Z,73.10
2023-05-20T02:00:21.667Z,73.10
2023-05-20T02:02:49.915Z,72.90
2023-05-20T02:05:17.769Z,73.20
2023-05-20T02:07:45.403Z,73.40
2023-05-20T02:10:14.010Z,73.50
2023-05-20T02:12:41.679Z,73.80
2023-05-20T02:15:10.166Z,74.00
2023-05-20T02:17:37.813Z,74.10
2023-05-20T02:20:07.685Z,74.20
2023-05-20T02:22:36.075Z,73.90
2023-05-20T02:25:04.973Z,73.60
2023-05-20T02:27:32.662Z,73.90
2023-05-20T02:30:01.185Z,74.30
2023-05-20T02:32:28.936Z,74.30
2023-05-20T02:34:56.578Z,74.40
2023-05-20T02:37:24.956Z,74.30
2023-05-20T02:39:52.572Z,74.50
2023-05-20T02:42:20.536Z,74.60
2023-05-20T02:44:48.247Z,74.80
2023-05-20T02:47:15.909Z,74.90
2023-05-20T02:49:43.562Z,75.00
2023-05-20T02:52:11.338Z,75.00
2023-05-20T02:54:38.941Z,74.80
2023-05-20T02:57:06.712Z,74.80
2023-05-20T02:59:34.263Z,74.60
2023-05-20T03:02:03.126Z,74.70
2023-05-20T03:04:31.671Z,74.30
2023-05-20T03:06:59.344Z,74.30
2023-05-20T03:09:27.274Z,74.50
2023-05-20T03:11:54.949Z,74.60
2023-05-20T03:14:22.490Z,74.60
2023-05-20T03:16:50.642Z,74.80
2023-05-20T03:19:19.822Z,75.70
2023-05-20T03:21:47.416Z,75.00
2023-05-20T03:24:15.252Z,75.00
2023-05-20T03:26:43.629Z,74.90
2023-05-20T03:29:11.204Z,74.80
2023-05-20T03:31:38.869Z,74.80
2023-05-20T03:34:06.450Z,74.90
2023-05-20T03:36:34.108Z,74.80
2023-05-20T03:39:04.192Z,75.00
2023-05-20T03:41:33.243Z,75.00
2023-05-20T03:44:01.037Z,75.10
2023-05-20T03:46:28.687Z,75.30
2023-05-20T03:48:57.814Z,75.20
2023-05-20T03:51:25.835Z,75.20
2023-05-20T03:53:56.184Z,75.30
2023-05-20T03:56:23.850Z,75.30
2023-05-20T03:58:51.519Z,75.20
2023-05-20T04:01:19.718Z,75.30
2023-05-20T04:03:47.515Z,75.30
2023-05-20T04:06:15.423Z,75.30
2023-05-20T04:08:43.063Z,75.30
2023-05-20T04:11:10.804Z,75.50
2023-05-20T04:13:38.379Z,75.60
2023-05-20T04:16:06.567Z,75.70
2023-05-20T04:18:38.964Z,75.80
2023-05-20T04:21:06.658Z,76.00
2023-05-20T04:23:34.249Z,76.00
2023-05-20T04:26:02.541Z,76.10
2023-05-20T04:28:32.208Z,76.40
2023-05-20T04:31:04.369Z,77.50
2023-05-20T04:33:37.992Z,76.90
2023-05-20T04:36:16.360Z,77.90
2023-05-20T04:38:45.454Z,77.20
2023-05-20T04:41:13.042Z,77.30
2023-05-20T04:43:40.950Z,77.30
2023-05-20T04:46:09.967Z,77.40
2023-05-20T04:48:38.136Z,77.60
2023-05-20T04:51:05.695Z,77.80
2023-05-20T04:53:35.974Z,78.00
2023-05-20T04:56:03.694Z,77.90
2023-05-20T04:58:31.736Z,78.20
2023-05-20T05:01:01.416Z,78.40
2023-05-20T05:03:29.258Z,78.60
2023-05-20T05:05:58.934Z,78.70
2023-05-20T05:08:26.956Z,78.90
2023-05-20T05:10:54.842Z,78.90
2023-05-20T05:13:22.449Z,78.90
2023-05-20T05:15:59.626Z,78.90
2023-05-20T05:18:28.626Z,79.10
2023-05-20T05:21:04.092Z,78.60
2023-05-20T05:23:33.375Z,78.50
2023-05-20T05:26:01.088Z,78.50
2023-05-20T05:28:28.779Z,78.30
2023-05-20T05:30:56.713Z,78.00
2023-05-20T05:33:24.347Z,78.00
2023-05-20T05:35:52.140Z,78.40
2023-05-20T05:38:19.662Z,77.70
2023-05-20T05:40:47.720Z,77.80
2023-05-20T05:43:16.378Z,77.60
2023-05-20T05:45:45.645Z,77.30
2023-05-20T05:48:13.979Z,77.40
2023-05-20T05:50:46.685Z,77.10
2023-05-20T05:53:16.460Z,76.60
2023-05-20T05:55:47.572Z,76.50
2023-05-20T05:58:16.416Z,76.20
2023-05-20T06:00:44.238Z,76.10
2023-05-20T06:03:12.113Z,76.00
2023-05-20T06:05:40.887Z,75.70
2023-05-20T06:08:08.721Z,75.70
2023-05-20T06:10:37.302Z,75.80
2023-05-20T06:13:05.671Z,75.90
2023-05-20T06:15:34.164Z,75.80
2023-05-20T06:18:03.455Z,75.60
2023-05-20T06:20:32.736Z,75.40
2023-05-20T06:23:00.419Z,75.50
2023-05-20T06:25:36.361Z,76.30
2023-05-20T06:28:04.184Z,75.40
2023-05-20T06:30:32.572Z,75.30
2023-05-20T06:33:00.303Z,75.20
2023-05-20T06:35:27.977Z,75.40
2023-05-20T06:37:55.858Z,75.40
2023-05-20T06:40:23.636Z,75.10
2023-05-20T06:42:51.241Z,75.10
2023-05-20T06:45:19.369Z,75.10
2023-05-20T06:47:54.465Z,75.00
2023-05-20T06:50:22.151Z,75.00
2023-05-20T06:52:49.853Z,75.20
2023-05-20T06:55:17.645Z,75.00
2023-05-20T06:57:45.379Z,74.90
2023-05-20T07:00:14.477Z,74.80
2023-05-20T07:02:43.928Z,75.00
2023-05-20T07:05:14.655Z,75.10
2023-05-20T07:07:42.237Z,74.90
2023-05-20T07:10:10.335Z,74.60
2023-05-20T07:12:38.039Z,74.20
2023-05-20T07:15:06.890Z,73.50
2023-05-20T07:17:35.188Z,73.50
2023-05-20T07:20:04.216Z,73.20
2023-05-20T07:22:32.770Z,72.60
2023-05-20T07:25:29.217Z,72.60
2023-05-20T07:27:56.859Z,72.20
2023-05-20T07:30:24.496Z,72.00
2023-05-20T07:33:08.258Z,72.00
2023-05-20T07:35:36.278Z,71.00
2023-05-20T07:38:04.095Z,72.60
2023-05-20T07:40:32.676Z,71.20
2023-05-20T07:43:00.321Z,71.00
2023-05-20T07:45:27.940Z,70.90
2023-05-20T07:47:55.525Z,70.20
2023-05-20T07:50:23.670Z,69.70
2023-05-20T07:52:56.495Z,69.90
2023-05-20T07:55:27.330Z,70.30
2023-05-20T07:57:56.288Z,70.00
2023-05-20T08:00:25.005Z,69.10
2023-05-20T08:02:52.651Z,68.00
2023-05-20T08:05:28.168Z,67.60
2023-05-20T08:07:56.345Z,67.00
2023-05-20T08:10:26.958Z,66.40
2023-05-20T08:12:54.901Z,66.60
2023-05-20T08:15:22.640Z,66.30
2023-05-20T08:17:50.400Z,65.80
2023-05-20T08:20:20.141Z,65.80
2023-05-20T08:22:47.699Z,66.10
2023-05-20T08:25:16.058Z,66.50
2023-05-20T08:27:45.019Z,66.40
2023-05-20T08:30:13.621Z,65.20
2023-05-20T08:32:42.074Z,66.60
2023-05-20T08:35:10.197Z,66.40
2023-05-20T08:37:37.789Z,66.80
2023-05-20T08:40:06.515Z,66.90
2023-05-20T08:42:34.357Z,66.20
2023-05-20T08:45:05.400Z,65.60
2023-05-20T08:47:33.411Z,65.00
2023-05-20T08:50:00.975Z,65.40
2023-05-20T08:52:31.525Z,65.20
2023-05-20T08:54:59.488Z,64.80
2023-05-20T08:57:27.857Z,65.00
2023-05-20T08:59:57.226Z,64.80
2023-05-20T09:02:24.741Z,64.60
2023-05-20T09:04:53.940Z,64.40
2023-05-20T09:07:28.958Z,64.60
2023-05-20T09:09:57.161Z,62.80
2023-05-20T09:12:24.700Z,63.00
2023-05-20T09:14:52.264Z,62.50
2023-05-20T09:17:23.045Z,62.60
2023-05-20T09:19:51.599Z,63.60
2023-05-20T09:22:39.719Z,62.80
2023-05-20T09:25:08.121Z,61.90
2023-05-20T09:27:36.150Z,62.80
2023-05-20T09:30:07.658Z,63.00
2023-05-20T09:32:35.430Z,62.80
2023-05-20T09:35:06.115Z,63.10
2023-05-20T09:37:36.745Z,63.20
2023-05-20T09:40:06.263Z,63.00
2023-05-20T09:42:52.651Z,62.80
2023-05-20T09:45:22.173Z,62.20
2023-05-20T09:47:53.032Z,62.00
2023-05-20T09:50:23.254Z,62.30
2023-05-20T09:52:53.625Z,61.10
2023-05-20T09:55:24.904Z,61.20
2023-05-20T09:57:54.610Z,62.00
2023-05-20T10:00:22.158Z,61.50
2023-05-20T10:02:53.759Z,62.00
2023-05-20T10:05:37.683Z,61.50
2023-05-20T10:08:25.879Z,61.10
2023-05-20T10:11:02.112Z,59.60
2023-05-20T10:13:39.132Z,59.80
2023-05-20T10:16:24.698Z,60.00
2023-05-20T10:19:27.591Z,60.40
2023-05-20T10:22:08.606Z,58.90
2023-05-20T10:24:41.742Z,58.90
2023-05-20T10:27:12.790Z,58.70
2023-05-20T10:29:52.026Z,58.90
2023-05-20T10:32:34.754Z,57.10
2023-05-20T10:35:09.039Z,57.30
2023-05-20T10:37:45.253Z,57.90
2023-05-20T10:40:19.660Z,56.50
2023-05-20T10:42:48.784Z,56.50
2023-05-20T10:45:28.970Z,56.10
2023-05-20T10:47:59.077Z,55.60
2023-05-20T10:50:36.372Z,56.80
2023-05-20T10:53:18.816Z,55.90
2023-05-20T10:55:54.920Z,56.80
2023-05-20T10:58:24.632Z,56.60
2023-05-20T11:00:55.082Z,56.40
2023-05-20T11:03:24.114Z,56.40
2023-05-20T11:05:52.250Z,56.90
2023-05-20T11:08:27.805Z,56.70
2023-05-20T11:10:59.279Z,56.30
2023-05-20T11:13:27.659Z,56.40
2023-05-20T11:15:55.697Z,56.20
2023-05-20T11:18:23.230Z,56.10
2023-05-20T11:20:51.073Z,56.10
2023-05-20T11:23:19.165Z,55.20
2023-05-20T11:25:46.786Z,54.40
2023-05-20T11:28:14.792Z,55.00
2023-05-20T11:30:45.924Z,54.10
2023-05-20T11:33:15.902Z,54.40
2023-05-20T11:35:50.723Z,54.60
2023-05-20T11:38:22.263Z,53.70
2023-05-20T11:40:55.379Z,53.60
2023-05-20T11:43:24.046Z,53.10
2023-05-20T11:45:59.828Z,51.70
2023-05-20T11:48:27.866Z,51.60
2023-05-20T11:50:57.062Z,52.50
2023-05-20T11:53:25.251Z,51.40
2023-05-20T11:56:00.362Z,51.40
2023-05-20T11:58:30.914Z,49.90
2023-05-20T12:01:13.518Z,49.90
2023-05-20T12:03:47.121Z,49.40
2023-05-20T12:06:14.964Z,49.10
2023-05-20T12:08:42.512Z,49.00
2023-05-20T12:11:10.099Z,48.60
2023-05-20T12:13:38.026Z,47.90
2023-05-20T12:16:06.400Z,48.20
2023-05-20T12:18:34.280Z,48.40
2023-05-20T12:21:01.824Z,47.90
2023-05-20T12:23:30.742Z,47.50
2023-05-20T12:25:58.320Z,47.40
2023-05-20T12:28:26.137Z,46.70
2023-05-20T12:30:53.718Z,46.70
2023-05-20T12:33:21.385Z,46.70
2023-05-20T12:35:48.902Z,46.80
2023-05-20T12:38:16.524Z,46.50
2023-05-20T12:40:44.144Z,45.90
2023-05-20T12:43:11.743Z,45.10
2023-05-20T12:45:39.271Z,44.10
2023-05-20T12:48:08.098Z,45.00
2023-05-20T12:50:36.168Z,44.50
2023-05-20T12:53:03.986Z,44.30
2023-05-20T12:55:31.601Z,44.10
2023-05-20T12:57:59.173Z,44.30
2023-05-20T13:00:26.708Z,44.70
2023-05-20T13:02:54.737Z,43.90
2023-05-20T13:05:23.258Z,44.60
2023-05-20T13:07:51.494Z,44.00
2023-05-20T13:10:19.944Z,43.60
2023-05-20T13:12:47.700Z,42.50
2023-05-20T13:15:16.063Z,43.80
2023-05-20T13:17:43.730Z,44.20
2023-05-20T13:20:12.132Z,44.80
2023-05-20T13:22:39.764Z,44.80
2023-05-20T13:25:09.097Z,43.70
2023-05-20T13:27:36.688Z,44.30
2023-05-20T13:30:06.160Z,45.10
2023-05-20T13:32:33.875Z,45.20
2023-05-20T13:35:01.559Z,45.30
2023-05-20T13:37:29.981Z,45.30
2023-05-20T13:39:57.633Z,45.10
2023-05-20T13:42:25.522Z,44.80
2023-05-20T13:44:53.173Z,44.10
2023-05-20T13:47:20.942Z,44.80
2023-05-20T13:49:48.513Z,44.60
2023-05-20T13:52:16.154Z,44.90
2023-05-20T13:54:46.745Z,44.50
2023-05-20T13:57:15.604Z,44.60
2023-05-20T13:59:43.242Z,44.30
2023-05-20T14:02:11.049Z,44.10
2023-05-20T14:04:39.716Z,43.40
2023-05-20T14:07:09.847Z,43.60
2023-05-20T14:09:37.957Z,43.00
2023-05-20T14:12:06.551Z,42.80
2023-05-20T14:14:34.508Z,42.40
2023-05-20T14:17:02.096Z,42.70
2023-05-20T14:19:30.051Z,42.30
2023-05-20T14:22:01.000Z,42.00
2023-05-20T14:24:28.951Z,41.40
2023-05-20T14:26:56.580Z,40.50
2023-05-20T14:29:24.303Z,40.50
2023-05-20T14:31:51.903Z,40.10
2023-05-20T14:34:19.542Z,39.80
2023-05-20T14:36:47.739Z,39.90
2023-05-20T14:39:15.517Z,39.80
2023-05-20T14:41:43.084Z,40.10
2023-05-20T14:44:10.720Z,40.60
2023-05-20T14:46:38.480Z,40.40
2023-05-20T14:49:06.234Z,39.80
2023-05-20T14:51:33.818Z,38.70
2023-05-20T14:54:01.404Z,38.40
2023-05-20T14:56:29.272Z,38.20
2023-05-20T14:58:59.354Z,38.10
2023-05-20T15:01:27.007Z,38.50
2023-05-20T15:03:54.698Z,37.90
2023-05-20T15:06:22.814Z,38.10
2023-05-20T15:08:50.637Z,37.20
2023-05-20T15:11:18.354Z,37.10
2023-05-20T15:13:46.550Z,37.80
2023-05-20T15:16:14.368Z,38.00
2023-05-20T15:18:42.145Z,38.00
2023-05-20T15:21:09.837Z,38.70
2023-05-20T15:23:37.495Z,39.80
2023-05-20T15:26:05.474Z,40.40
2023-05-20T15:28:33.265Z,40.90
2023-05-20T15:31:01.061Z,40.30
2023-05-20T15:33:28.733Z,40.40
2023-05-20T15:35:56.552Z,41.10
2023-05-20T15:38:24.364Z,41.20
2023-05-20T15:40:53.372Z,41.00
2023-05-20T15:43:21.093Z,41.00
2023-05-20T15:45:48.713Z,41.60
2023-05-20T15:48:17.193Z,42.20
2023-05-20T15:50:44.902Z,42.20
2023-05-20T15:53:14.384Z,42.30
2023-05-20T15:55:42.960Z,42.50
2023-05-20T15:58:11.147Z,42.20
2023-05-20T16:00:38.962Z,42.10
2023-05-20T16:03:06.644Z,42.00
2023-05-20T16:05:34.412Z,41.80
2023-05-20T16:08:02.308Z,42.20
2023-05-20T16:10:33.002Z,42.80
2023-05-20T16:13:01.283Z,43.30
2023-05-20T16:15:35.500Z,43.60
2023-05-20T16:18:03.278Z,43.50
2023-05-20T16:20:31.040Z,43.80
2023-05-20T16:22:58.766Z,44.40
2023-05-20T16:25:26.385Z,44.90
2023-05-20T16:27:53.930Z,44.90
2023-05-20T16:30:21.517Z,44.80
2023-05-20T16:32:49.338Z,44.60
2023-05-20T16:35:17.093Z,44.40
2023-05-20T16:37:44.752Z,44.20
2023-05-20T16:40:12.970Z,44.30
2023-05-20T16:42:40.794Z,44.50
2023-05-20T16:45:08.945Z,44.70
2023-05-20T16:47:36.957Z,44.70
2023-05-20T16:50:05.219Z,44.80
2023-05-20T16:52:37.807Z,44.90
2023-05-20T16:55:08.376Z,45.30
2023-05-20T16:57:36.310Z,45.70
2023-05-20T17:00:11.526Z,45.40
2023-05-20T17:02:39.463Z,45.40
2023-05-20T17:05:07.528Z,45.60
2023-05-20T17:07:35.949Z,45.80
2023-05-20T17:10:03.877Z,46.00
2023-05-20T17:12:31.491Z,46.10
2023-05-20T17:14:59.096Z,46.70
2023-05-20T17:17:26.657Z,47.30
2023-05-20T17:19:54.709Z,47.30
2023-05-20T17:22:23.025Z,47.20
2023-05-20T17:24:50.646Z,47.70
2023-05-20T17:27:18.217Z,47.90
2023-05-20T17:29:46.243Z,48.10
2023-05-20T17:32:13.814Z,48.00
2023-05-20T17:34:41.439Z,48.40
2023-05-20T17:37:09.003Z,48.60
2023-05-20T17:39:36.782Z,48.90
2023-05-20T17:42:04.733Z,49.30
2023-05-20T17:44:32.481Z,49.70
2023-05-20T17:47:00.378Z,50.10
2023-05-20T17:49:27.940Z,50.20
2023-05-20T17:51:55.496Z,50.40
2023-05-20T17:54:23.054Z,50.80
2023-05-20T17:56:51.162Z,51.00
2023-05-20T17:59:18.747Z,51.00
2023-05-20T18:01:46.629Z,51.70
2023-05-20T18:04:14.348Z,51.40
2023-05-20T18:06:42.816Z,51.70
2023-05-20T18:09:10.456Z,52.00
2023-05-20T18:11:39.063Z,52.20
2023-05-20T18:14:06.589Z,52.70
2023-05-20T18:16:34.656Z,53.00
2023-05-20T18:19:02.972Z,53.80
2023-05-20T18:21:30.791Z,53.80
2023-05-20T18:23:58.430Z,54.20
2023-05-20T18:26:26.449Z,54.00
2023-05-20T18:28:53.991Z,54.20
2023-05-20T18:31:21.622Z,54.20
2023-05-20T18:33:49.200Z,54.50
2023-05-20T18:36:16.951Z,54.70
2023-05-20T18:38:44.998Z,54.60
2023-05-20T18:41:12.797Z,55.00
2023-05-20T18:43:40.493Z,55.20
2023-05-20T18:46:08.079Z,55.50
2023-05-20T18:48:35.853Z,55.50
2023-05-20T18:51:03.527Z,55.60
2023-05-20T18:53:31.506Z,56.00
2023-05-20T18:56:02.979Z,56.20
2023-05-20T18:58:30.628Z,56.20
2023-05-20T19:00:58.164Z,56.40
2023-05-20T19:03:26.412Z,56.60
2023-05-20T19:05:54.008Z,56.50
2023-05-20T19:08:23.115Z,56.70
2023-05-20T19:10:50.763Z,56.90
2023-05-20T19:13:18.642Z,57.50
2023-05-20T19:15:46.165Z,57.20
2023-05-20T19:18:14.146Z,57.20
2023-05-20T19:20:41.713Z,57.30
2023-05-20T19:23:09.334Z,57.00
2023-05-20T19:25:37.132Z,57.00
2023-05-20T19:28:04.922Z,57.20
2023-05-20T19:30:32.727Z,57.40
2023-05-20T19:33:03.607Z,57.20
2023-05-20T19:35:33.211Z,57.30
2023-05-20T19:38:00.819Z,57.20
2023-05-20T19:40:28.861Z,57.20
2023-05-20T19:42:56.447Z,57.30
2023-05-20T19:45:24.024Z,57.40
2023-05-20T19:47:51.614Z,57.50
2023-05-20T19:50:19.300Z,57.50
2023-05-20T19:52:46.842Z,57.70
2023-05-20T19:55:15.656Z,57.90
2023-05-20T19:57:46.433Z,58.00
2023-05-20T20:00:14.334Z,58.30
2023-05-20T20:02:41.889Z,58.40
2023-05-20T20:05:09.944Z,58.30
2023-05-20T20:07:37.568Z,58.40
2023-05-20T20:10:05.814Z,58.60
2023-05-20T20:12:33.458Z,58.70
2023-05-20T20:15:01.225Z,58.80
2023-05-20T20:17:30.205Z,58.90
2023-05-20T20:19:57.925Z,58.70
2023-05-20T20:22:25.569Z,59.00
2023-05-20T20:24:53.088Z,59.10
2023-05-20T20:27:23.627Z,59.30
2023-05-20T20:29:51.361Z,59.20
2023-05-20T20:32:19.096Z,59.30
2023-05-20T20:34:46.655Z,59.60
2023-05-20T20:37:15.516Z,60.10
2023-05-20T20:39:46.708Z,60.50
2023-05-20T20:42:14.307Z,60.50
2023-05-20T20:44:48.126Z,60.60
2023-05-20T20:47:16.007Z,60.70
2023-05-20T20:49:43.562Z,60.90
2023-05-20T20:52:12.290Z,61.00
2023-05-20T20:54:42.190Z,61.10
2023-05-20T20:57:11.466Z,61.40
2023-05-20T20:59:39.848Z,62.00
2023-05-20T21:02:07.806Z,62.20
2023-05-20T21:04:35.786Z,62.10
2023-05-20T21:07:03.444Z,62.30
2023-05-20T21:09:31.116Z,62.30
2023-05-20T21:12:00.355Z,62.50
2023-05-20T21:14:27.988Z,63.10
2023-05-20T21:16:55.696Z,63.20
2023-05-20T21:19:23.359Z,63.40
2023-05-20T21:21:50.954Z,63.90
2023-05-20T21:24:19.663Z,64.50
2023-05-20T21:26:47.243Z,64.40
2023-05-20T21:29:14.835Z,64.50
2023-05-20T21:31:42.473Z,64.70
2023-05-20T21:34:10.048Z,65.10
2023-05-20T21:36:37.743Z,65.10
2023-05-20T21:39:05.459Z,65.30
2023-05-20T21:41:33.165Z,65.20
2023-05-20T21:44:00.855Z,65.60
2023-05-20T21:46:28.489Z,65.40
2023-05-20T21:48:56.405Z,65.80
2023-05-20T21:51:24.110Z,65.70
2023-05-20T21:53:51.657Z,65.90
2023-05-20T21:56:19.230Z,66.20
2023-05-20T21:58:46.778Z,66.70
2023-05-20T22:01:14.443Z,66.60
2023-05-20T22:03:47.943Z,66.80
2023-05-20T22:06:17.180Z,67.30
2023-05-20T22:08:44.811Z,68.00
2023-05-20T22:11:12.497Z,68.10
2023-05-20T22:13:41.517Z,68.40
2023-05-20T22:16:09.400Z,69.00
2023-05-20T22:18:38.416Z,70.10
2023-05-20T22:21:06.341Z,70.10
2023-05-20T22:23:33.926Z,69.80
2023-05-20T22:26:01.567Z,70.90
2023-05-20T22:28:30.343Z,70.30
2023-05-20T22:30:57.898Z,70.40
2023-05-20T22:33:26.790Z,70.70
2023-05-20T22:35:54.425Z,70.80
2023-05-20T22:38:21.983Z,70.70
2023-05-20T22:40:50.336Z,70.80
2023-05-20T22:43:17.857Z,70.70
2023-05-20T22:45:45.499Z,71.10
2023-05-20T22:48:13.297Z,71.10
2023-05-20T22:50:41.348Z,71.30
2023-05-20T22:53:09.255Z,72.10
2023-05-20T22:55:38.716Z,72.00
2023-05-20T22:58:07.884Z,72.20
2023-05-20T23:00:35.766Z,72.30
2023-05-20T23:03:03.423Z,71.90
2023-05-20T23:05:31.662Z,71.90
2023-05-20T23:07:59.626Z,71.90
2023-05-20T23:10:27.205Z,72.20
2023-05-20T23:12:54.808Z,71.90
2023-05-20T23:15:25.041Z,72.20
2023-05-20T23:17:52.689Z,72.30
2023-05-20T23:20:22.230Z,72.70
2023-05-20T23:22:49.995Z,72.70
2023-05-20T23:25:17.643Z,72.80
2023-05-20T23:27:45.505Z,72.80
2023-05-20T23:30:13.230Z,72.70
2023-05-20T23:32:40.879Z,73.20
2023-05-20T23:35:11.415Z,73.30
2023-05-20T23:37:40.828Z,73.70
2023-05-20T23:40:09.219Z,74.00
2023-05-20T23:42:36.979Z,74.00
2023-05-20T23:45:05.829Z,74.00
2023-05-20T23:47:34.211Z,73.80
2023-05-20T23:50:02.109Z,73.80
2023-05-20T23:52:29.796Z,73.60
2023-05-20T23:54:58.510Z,73.90
2023-05-20T23:57:26.032Z,74.20
2023-05-20T23:59:53.696Z,74.70
